sensor_id;sensor_type;location;lat;lon;timestamp;temperature;humidity
44731;DHT22;30458;47.448;19.032;2023-03-01T00:03:33;7.40;91.00
44731;DHT22;30458;47.448;19.032;2023-03-01T00:13:35;7.40;90.80
44731;DHT22;30458;47.448;19.032;2023-03-01T00:23:38;7.50;90.80
44731;DHT22;30458;47.448;19.032;2023-03-01T00:33:44;7.40;90.70
44731;DHT22;30458;47.448;19.032;2023-03-01T00:43:45;7.40;90.90
44731;DHT22;30458;47.448;19.032;2023-03-01T00:53:50;7.40;90.80
44731;DHT22;30458;47.448;19.032;2023-03-01T01:03:54;7.40;90.90
44731;DHT22;30458;47.448;19.032;2023-03-01T01:13:55;7.40;91.00
44731;DHT22;30458;47.448;19.032;2023-03-01T01:23:59;7.40;90.80
44731;DHT22;30458;47.448;19.032;2023-03-01T01:34:02;7.40;91.00
44731;DHT22;30458;47.448;19.032;2023-03-01T01:44:24;7.40;90.90
44731;DHT22;30458;47.448;19.032;2023-03-01T02:05:20;7.30;90.90
44731;DHT22;30458;47.448;19.032;2023-03-01T02:15:23;7.30;90.80
44731;DHT22;30458;47.448;19.032;2023-03-01T02:25:37;7.30;90.90
44731;DHT22;30458;47.448;19.032;2023-03-01T02:35:43;7.20;92.60
44731;DHT22;30458;47.448;19.032;2023-03-01T02:45:51;7.10;92.80
44731;DHT22;30458;47.448;19.032;2023-03-01T02:55:51;7.10;93.30
44731;DHT22;30458;47.448;19.032;2023-03-01T03:05:55;7.10;93.60
44731;DHT22;30458;47.448;19.032;2023-03-01T03:15:56;7.10;93.90
44731;DHT22;30458;47.448;19.032;2023-03-01T03:25:57;7.10;94.00
44731;DHT22;30458;47.448;19.032;2023-03-01T03:36:00;7.10;94.00
44731;DHT22;30458;47.448;19.032;2023-03-01T03:46:04;7.20;93.80
44731;DHT22;30458;47.448;19.032;2023-03-01T03:56:06;7.20;93.90
44731;DHT22;30458;47.448;19.032;2023-03-01T04:06:07;7.20;93.90
44731;DHT22;30458;47.448;19.032;2023-03-01T04:16:08;7.10;93.70
44731;DHT22;30458;47.448;19.032;2023-03-01T04:26:08;7.00;93.50
44731;DHT22;30458;47.448;19.032;2023-03-01T04:36:13;7.00;93.40
44731;DHT22;30458;47.448;19.032;2023-03-01T04:46:17;7.00;93.40
44731;DHT22;30458;47.448;19.032;2023-03-01T04:56:18;7.00;93.60
44731;DHT22;30458;47.448;19.032;2023-03-01T05:06:22;7.00;93.70
44731;DHT22;30458;47.448;19.032;2023-03-01T05:16:22;6.90;93.70
44731;DHT22;30458;47.448;19.032;2023-03-01T05:26:23;7.00;93.70
44731;DHT22;30458;47.448;19.032;2023-03-01T05:36:29;7.00;93.60
44731;DHT22;30458;47.448;19.032;2023-03-01T05:46:29;7.10;93.50
44731;DHT22;30458;47.448;19.032;2023-03-01T05:56:34;7.00;93.60
44731;DHT22;30458;47.448;19.032;2023-03-01T06:06:40;7.10;93.60
44731;DHT22;30458;47.448;19.032;2023-03-01T06:16:43;7.10;93.70
44731;DHT22;30458;47.448;19.032;2023-03-01T06:26:44;7.20;93.80
44731;DHT22;30458;47.448;19.032;2023-03-01T06:36:48;7.20;93.80
44731;DHT22;30458;47.448;19.032;2023-03-01T06:46:52;7.20;93.80
44731;DHT22;30458;47.448;19.032;2023-03-01T06:56:55;7.30;93.60
44731;DHT22;30458;47.448;19.032;2023-03-01T07:06:58;7.20;93.20
44731;DHT22;30458;47.448;19.032;2023-03-01T07:16:59;7.20;93.50
44731;DHT22;30458;47.448;19.032;2023-03-01T07:26:59;7.30;93.40
44731;DHT22;30458;47.448;19.032;2023-03-01T07:37:02;7.40;93.20
44731;DHT22;30458;47.448;19.032;2023-03-01T07:47:03;7.50;92.80
44731;DHT22;30458;47.448;19.032;2023-03-01T07:57:04;7.70;92.60
44731;DHT22;30458;47.448;19.032;2023-03-01T08:07:06;7.80;92.30
44731;DHT22;30458;47.448;19.032;2023-03-01T08:17:06;8.10;91.90
44731;DHT22;30458;47.448;19.032;2023-03-01T08:27:07;8.30;91.80
44731;DHT22;30458;47.448;19.032;2023-03-01T08:37:12;8.40;91.40
44731;DHT22;30458;47.448;19.032;2023-03-01T08:47:14;8.40;91.20
44731;DHT22;30458;47.448;19.032;2023-03-01T08:57:15;8.60;91.10
44731;DHT22;30458;47.448;19.032;2023-03-01T09:07:18;8.60;91.20
44731;DHT22;30458;47.448;19.032;2023-03-01T09:17:21;9.00;90.90
44731;DHT22;30458;47.448;19.032;2023-03-01T09:27:22;9.50;90.40
44731;DHT22;30458;47.448;19.032;2023-03-01T09:37:23;10.10;90.00
44731;DHT22;30458;47.448;19.032;2023-03-01T09:47:29;10.30;89.40
44731;DHT22;30458;47.448;19.032;2023-03-01T09:57:40;11.00;87.80
44731;DHT22;30458;47.448;19.032;2023-03-01T10:08:02;11.30;86.50
44731;DHT22;30458;47.448;19.032;2023-03-01T10:18:12;11.20;86.60
44731;DHT22;30458;47.448;19.032;2023-03-01T10:28:20;11.30;86.60
44731;DHT22;30458;47.448;19.032;2023-03-01T10:38:31;11.50;86.50
44731;DHT22;30458;47.448;19.032;2023-03-01T10:59:25;11.40;86.10
44731;DHT22;30458;47.448;19.032;2023-03-01T11:09:31;11.10;86.70
44731;DHT22;30458;47.448;19.032;2023-03-01T11:19:38;11.00;86.70
44731;DHT22;30458;47.448;19.032;2023-03-01T11:29:42;11.20;87.30
44731;DHT22;30458;47.448;19.032;2023-03-01T11:39:55;11.50;86.10
44731;DHT22;30458;47.448;19.032;2023-03-01T12:42:21;11.90;87.30
44731;DHT22;30458;47.448;19.032;2023-03-01T12:52:38;12.00;87.20
44731;DHT22;30458;47.448;19.032;2023-03-01T13:03:04;11.80;86.80
44731;DHT22;30458;47.448;19.032;2023-03-01T13:13:20;11.80;86.60
44731;DHT22;30458;47.448;19.032;2023-03-01T13:53:42;12.00;86.50
44731;DHT22;30458;47.448;19.032;2023-03-01T14:03:46;11.90;86.80
44731;DHT22;30458;47.448;19.032;2023-03-01T14:24:25;11.80;87.10
44731;DHT22;30458;47.448;19.032;2023-03-01T14:34:32;11.80;87.00
44731;DHT22;30458;47.448;19.032;2023-03-01T14:44:35;11.90;86.90
44731;DHT22;30458;47.448;19.032;2023-03-01T14:54:58;12.00;87.30
44731;DHT22;30458;47.448;19.032;2023-03-01T15:05:01;12.00;87.50
44731;DHT22;30458;47.448;19.032;2023-03-01T15:25:32;12.00;87.80
44731;DHT22;30458;47.448;19.032;2023-03-01T15:45:40;12.00;87.50
44731;DHT22;30458;47.448;19.032;2023-03-01T15:55:41;11.90;87.70
44731;DHT22;30458;47.448;19.032;2023-03-01T16:05:44;11.80;87.80
44731;DHT22;30458;47.448;19.032;2023-03-01T16:15:47;11.70;88.00
44731;DHT22;30458;47.448;19.032;2023-03-01T16:25:48;11.70;88.30
44731;DHT22;30458;47.448;19.032;2023-03-01T16:35:51;11.60;88.60
44731;DHT22;30458;47.448;19.032;2023-03-01T16:45:54;11.40;89.40
44731;DHT22;30458;47.448;19.032;2023-03-01T16:55:58;11.20;90.00
44731;DHT22;30458;47.448;19.032;2023-03-01T17:06:03;11.10;90.20
44731;DHT22;30458;47.448;19.032;2023-03-01T17:16:10;11.10;90.30
44731;DHT22;30458;47.448;19.032;2023-03-01T17:26:11;11.00;90.50
44731;DHT22;30458;47.448;19.032;2023-03-01T17:36:15;11.00;90.80
44731;DHT22;30458;47.448;19.032;2023-03-01T17:46:16;10.80;91.20
44731;DHT22;30458;47.448;19.032;2023-03-01T17:56:17;10.70;91.30
44731;DHT22;30458;47.448;19.032;2023-03-01T18:06:20;10.50;91.50
44731;DHT22;30458;47.448;19.032;2023-03-01T18:16:24;10.20;92.10
44731;DHT22;30458;47.448;19.032;2023-03-01T18:26:30;10.10;92.40
44731;DHT22;30458;47.448;19.032;2023-03-01T18:36:33;9.90;92.60
44731;DHT22;30458;47.448;19.032;2023-03-01T18:46:37;9.80;91.90
44731;DHT22;30458;47.448;19.032;2023-03-01T18:56:44;9.70;93.00
44731;DHT22;30458;47.448;19.032;2023-03-01T19:06:45;9.50;93.00
44731;DHT22;30458;47.448;19.032;2023-03-01T19:16:48;9.30;93.40
44731;DHT22;30458;47.448;19.032;2023-03-01T19:26:53;9.00;93.90
44731;DHT22;30458;47.448;19.032;2023-03-01T19:36:55;8.80;94.10
44731;DHT22;30458;47.448;19.032;2023-03-01T19:47:00;8.80;94.20
44731;DHT22;30458;47.448;19.032;2023-03-01T19:57:01;8.70;94.30
44731;DHT22;30458;47.448;19.032;2023-03-01T20:07:04;8.50;94.40
44731;DHT22;30458;47.448;19.032;2023-03-01T20:17:07;8.30;94.50
44731;DHT22;30458;47.448;19.032;2023-03-01T20:27:08;8.20;94.70
44731;DHT22;30458;47.448;19.032;2023-03-01T20:37:09;8.00;94.80
44731;DHT22;30458;47.448;19.032;2023-03-01T20:47:10;7.50;95.90
44731;DHT22;30458;47.448;19.032;2023-03-01T20:57:14;7.40;96.30
44731;DHT22;30458;47.448;19.032;2023-03-01T21:07:14;7.10;97.00
44731;DHT22;30458;47.448;19.032;2023-03-01T21:17:16;6.70;97.90
44731;DHT22;30458;47.448;19.032;2023-03-01T21:27:20;6.80;97.90
44731;DHT22;30458;47.448;19.032;2023-03-01T21:37:23;7.00;97.60
44731;DHT22;30458;47.448;19.032;2023-03-01T21:47:27;7.20;97.10
44731;DHT22;30458;47.448;19.032;2023-03-01T21:57:28;7.10;97.00
44731;DHT22;30458;47.448;19.032;2023-03-01T22:07:29;7.00;97.00
44731;DHT22;30458;47.448;19.032;2023-03-01T22:17:35;6.80;97.10
44731;DHT22;30458;47.448;19.032;2023-03-01T22:27:36;6.70;97.20
44731;DHT22;30458;47.448;19.032;2023-03-01T22:37:37;6.60;97.40
44731;DHT22;30458;47.448;19.032;2023-03-01T22:47:41;6.50;97.40
44731;DHT22;30458;47.448;19.032;2023-03-01T22:57:41;6.50;97.40
44731;DHT22;30458;47.448;19.032;2023-03-01T23:07:42;6.40;97.40
44731;DHT22;30458;47.448;19.032;2023-03-01T23:17:44;6.20;97.70
44731;DHT22;30458;47.448;19.032;2023-03-01T23:27:45;6.10;97.80
44731;DHT22;30458;47.448;19.032;2023-03-01T23:37:45;6.00;97.80
44731;DHT22;30458;47.448;19.032;2023-03-01T23:47:46;6.00;97.50
44731;DHT22;30458;47.448;19.032;2023-03-01T23:57:47;5.80;97.60
